Grindstone Creek Rancheria, California
Current Conditions -  °F | °C
As of 10:50 AM on Tuesday 27 Jan 2015 (Local Time) from KCIC Reporting Station
Overcast Overcast  
Wind Chill: 55°   Ceiling: 12000
Heat Index: 55°   Visibility: 7mi
Dew Point: 48°   Wind: 12mph
Humidity: 77%   Direction: 160°SSE
Pressure: 30.25"   Gusts: NA
Location:  39.5562°N, 122.604°W
Report Text: KCIC 271850Z 16010KT 7SM BKN120 OVC180 13/09 A3025
Loading
Personal Weather Stations






























Interactive Weather Map New forecast layout! Learn more

10-Day Weather Forecast

Advertisements
Track Severe Weather on mobile